Ragtown, Nevada
Current Conditions -  °F | °C
As of 11:56 PM on Sunday 23 Nov 2014 (Local Time) from KNFL Reporting Station
Clear Clear  
Wind Chill: 24°   Ceiling: Unl
Heat Index: 24°   Visibility: 10mi
Dew Point: 17°   Wind: 0mph
Humidity: 75%   Direction: NA
Pressure: 30.36"   Gusts: NA
Location:  39.5809°N, 118.333°W
Report Text: KNFL 240756Z AUTO 00000KT 10SM CLR M04/M08 A3036 RMK AO2 PK WND 03035/0708 SLP238 T10441083 400831056
Loading
Personal Weather Stations






























Interactive Weather Map New forecast layout! Learn more

10-Day Weather Forecast

Advertisements
Track Severe Weather on mobile